Погода Коупелана неделю

Банфора, Буркина-Фасо

26 февраля-03 марта
  • 26февраля
    Сегодня
    +24°
    +38°
    Небольшая облачность
    ВремяПогодаТемператураВлажностьДавлениеВетер, м/сВероятность осадков
    00:00Ясно и безоблачно+27°C26 %733 мм2.4 м/с2 %
    03:00Ясно и безоблачно+25°C27 %732 мм2.5 м/с2 %
    06:00Ясно и безоблачно+24°C24 %732 мм2.5 м/с2 %
    09:00Практически безоблачно+32°C13 %734 мм3.0 м/с2 %
    12:00Практически безоблачно+36°C9 %733 мм4.4 м/с2 %
    15:00Небольшая облачность+38°C11 %731 мм2.5 м/с2 %
    18:00Практически безоблачно+36°C13 %731 мм1.4 м/с2 %
    21:00Ясно и безоблачно+31°C18 %732 мм0.6 м/с2 %
  • 27февраля
    Вторник
    +23°
    +39°
    Ясно и безоблачно
    ВремяПогодаТемператураВлажностьДавлениеВетер, м/сВероятность осадков
    00:00Ясно и безоблачно+28°C22 %732 мм1.2 м/с2 %
    03:00Ясно и безоблачно+26°C23 %731 мм2.4 м/с2 %
    06:00Ясно и безоблачно+25°C21 %731 мм2.6 м/с2 %
    09:00Ясно и безоблачно+31°C13 %734 мм1.1 м/с2 %
    12:00Ясно и безоблачно+37°C6 %733 мм3.3 м/с2 %
    15:00Ясно и безоблачно+39°C8 %730 мм1.7 м/с2 %
    18:00Небольшая облачность+35°C14 %730 мм0.9 м/с2 %
    21:00Ясно и безоблачно+30°C16 %732 мм1.3 м/с2 %
  • 28февраля
    Среда
    +24°
    +39°
    Ясно и безоблачно
    ВремяПогодаТемператураВлажностьДавлениеВетер, м/сВероятность осадков
    00:00Практически безоблачно+28°C19 %732 мм1.9 м/с2 %
    03:00Ясно и безоблачно+25°C21 %730 мм2.7 м/с2 %
    06:00Ясно и безоблачно+23°C22 %731 мм2.5 м/с2 %
    09:00Ясно и безоблачно+32°C13 %733 мм1.5 м/с2 %
    12:00Ясно и безоблачно+38°C8 %732 мм2.4 м/с2 %
    15:00Ясно и безоблачно+39°C8 %730 мм0.5 м/с2 %
    18:00Ясно и безоблачно+35°C15 %729 мм0.6 м/с2 %
    21:00Небольшая облачность+29°C17 %731 мм1.7 м/с2 %
  • 29февраля
    Четверг
    +24°
    +39°
    Ясно и безоблачно
    ВремяПогодаТемператураВлажностьДавлениеВетер, м/сВероятность осадков
    00:00Небольшая облачность+30°C15 %731 мм2.3 м/с2 %
    03:00Ясно и безоблачно+30°C14 %730 мм2.7 м/с2 %
    06:00Ясно и безоблачно+24°C24 %731 мм2.4 м/с2 %
    09:00Ясно и безоблачно+31°C13 %734 мм1.5 м/с2 %
    12:00Ясно и безоблачно+36°C7 %732 мм2.7 м/с2 %
    15:00Ясно и безоблачно+38°C8 %730 мм2.6 м/с2 %
    18:00Ясно и безоблачно+34°C12 %730 мм2.5 м/с2 %
    21:00Ясно и безоблачно+31°C10 %731 мм3.7 м/с2 %
  • 01марта
    Пятница
    +21°
    +38°
    Практически безоблачно
    ВремяПогодаТемператураВлажностьДавлениеВетер, м/сВероятность осадков
    00:00Ясно и безоблачно+28°C10 %732 мм3.6 м/с2 %
    03:00Ясно и безоблачно+26°C10 %731 мм3.4 м/с2 %
    06:00Небольшая облачность+24°C11 %732 мм3.2 м/с2 %
    09:00Ясно и безоблачно+30°C9 %734 мм3.3 м/с2 %
    12:00Ясно и безоблачно+35°C6 %732 мм3.1 м/с2 %
    15:00Практически безоблачно+37°C7 %730 мм2.4 м/с2 %
    18:00Облачно с прояснениями+33°C14 %730 мм2.4 м/с2 %
    21:00Небольшая облачность+28°C12 %732 мм2.3 м/с2 %
Мы используем cookies
Соглашаюсь